createdAt,value
2022-10-08T00:01:03.438Z,103.70015
2022-10-08T00:06:05.047Z,93.15235
2022-10-08T00:11:06.653Z,85.0341
2022-10-08T00:16:08.312Z,76.4418
2022-10-08T00:21:09.986Z,70.87165
2022-10-08T00:26:11.594Z,61.56825
2022-10-08T00:31:13.317Z,53.09445
2022-10-08T00:36:14.908Z,43.37625
2022-10-08T00:41:16.526Z,36.5024
2022-10-08T00:46:18.136Z,29.39155
2022-10-08T00:51:19.762Z,23.6436
2022-10-08T00:56:21.373Z,19.14005
2022-10-08T01:01:23.132Z,13.74765
2022-10-08T01:06:24.812Z,9.4219
2022-10-08T01:11:26.386Z,5.74795
2022-10-08T01:16:28.025Z,3.8517
2022-10-08T01:21:29.750Z,2.9036
2022-10-08T01:26:31.356Z,2.1925
2022-10-08T01:31:33.145Z,0.8296
2022-10-08T01:36:34.760Z,0
2022-10-08T01:41:36.348Z,0
2022-10-08T01:46:37.946Z,0
2022-10-08T01:51:39.533Z,0
2022-10-08T01:56:41.167Z,0
2022-10-08T02:01:42.789Z,0
2022-10-08T02:06:44.363Z,0
2022-10-08T02:11:46.035Z,0
2022-10-08T02:16:47.665Z,0
2022-10-08T02:21:49.265Z,0
2022-10-08T02:26:50.888Z,0
2022-10-08T02:31:52.565Z,0
2022-10-08T02:36:54.195Z,0
2022-10-08T02:41:55.826Z,0
2022-10-08T02:46:57.457Z,0
2022-10-08T02:51:59.104Z,0
2022-10-08T02:57:01.545Z,0
2022-10-08T03:02:03.353Z,0
2022-10-08T03:07:05.015Z,0
2022-10-08T03:12:06.592Z,0
2022-10-08T03:17:08.219Z,0
2022-10-08T03:22:09.832Z,0
2022-10-08T03:27:11.437Z,0
2022-10-08T03:32:12.972Z,0
2022-10-08T03:37:14.593Z,0
2022-10-08T03:42:16.211Z,0
2022-10-08T03:47:17.837Z,0
2022-10-08T03:52:19.454Z,0
2022-10-08T03:57:20.995Z,0
2022-10-08T04:02:22.710Z,0
2022-10-08T04:07:24.308Z,0
2022-10-08T04:12:25.912Z,0
2022-10-08T04:17:27.455Z,0
2022-10-08T04:22:29.055Z,0
2022-10-08T04:27:30.669Z,0
2022-10-08T04:32:32.270Z,0
2022-10-08T04:37:33.849Z,0
2022-10-08T04:42:35.493Z,0
2022-10-08T04:47:37.089Z,0
2022-10-08T04:52:38.736Z,0
2022-10-08T04:57:40.360Z,0
2022-10-08T05:02:42.022Z,0
2022-10-08T05:07:43.648Z,0
2022-10-08T05:12:45.564Z,0
2022-10-08T05:17:47.436Z,0
2022-10-08T05:22:49.429Z,0
2022-10-08T05:27:51.246Z,0
2022-10-08T05:32:52.869Z,0
2022-10-08T05:37:54.428Z,0
2022-10-08T05:42:56.022Z,0
2022-10-08T05:47:57.607Z,0
2022-10-08T05:52:59.203Z,0
2022-10-08T05:58:00.792Z,0
2022-10-08T06:03:02.524Z,0
2022-10-08T06:08:04.184Z,0
2022-10-08T06:13:05.835Z,0
2022-10-08T06:18:07.415Z,0
2022-10-08T06:23:09.120Z,0
2022-10-08T06:28:10.854Z,0
2022-10-08T06:33:12.530Z,0
2022-10-08T06:38:14.142Z,0
2022-10-08T06:43:15.768Z,0
2022-10-08T06:48:17.338Z,0
2022-10-08T06:53:18.940Z,0
2022-10-08T06:58:20.537Z,0
2022-10-08T07:03:22.121Z,0
2022-10-08T07:08:23.794Z,0
2022-10-08T07:13:25.454Z,0
2022-10-08T07:18:27.044Z,0
2022-10-08T07:23:28.650Z,0
2022-10-08T07:28:30.300Z,0
2022-10-08T07:33:31.997Z,0
2022-10-08T07:38:33.572Z,0
2022-10-08T07:43:35.191Z,0
2022-10-08T07:48:36.788Z,0
2022-10-08T07:53:38.349Z,0
2022-10-08T07:58:39.936Z,0
2022-10-08T08:03:41.642Z,0
2022-10-08T08:08:43.228Z,0
2022-10-08T08:13:44.829Z,0
2022-10-08T08:18:46.420Z,0
2022-10-08T08:23:47.997Z,0
2022-10-08T08:28:49.546Z,0
2022-10-08T08:33:51.209Z,0
2022-10-08T08:38:52.819Z,0
2022-10-08T08:43:54.405Z,0
2022-10-08T08:48:56.015Z,0
2022-10-08T08:53:57.656Z,0
2022-10-08T08:58:59.277Z,0
2022-10-08T09:04:00.914Z,0
2022-10-08T09:09:02.530Z,0
2022-10-08T09:14:04.104Z,0
2022-10-08T09:19:05.696Z,0
2022-10-08T09:24:07.308Z,0
2022-10-08T09:29:08.918Z,0
2022-10-08T09:34:10.538Z,0
2022-10-08T09:39:12.126Z,0
2022-10-08T09:44:13.683Z,0
2022-10-08T09:49:15.257Z,0
2022-10-08T09:54:16.842Z,0
2022-10-08T09:59:18.463Z,0
2022-10-08T10:04:20.109Z,0
2022-10-08T10:09:21.825Z,0
2022-10-08T10:14:23.415Z,0
2022-10-08T10:19:25.024Z,0
2022-10-08T10:24:27.037Z,0
2022-10-08T10:29:28.642Z,0
2022-10-08T10:34:30.371Z,0
2022-10-08T10:39:31.978Z,0
2022-10-08T10:44:33.599Z,0
2022-10-08T10:49:35.215Z,0
2022-10-08T10:54:36.861Z,0
2022-10-08T10:59:38.482Z,0
2022-10-08T11:04:40.083Z,0
2022-10-08T11:09:41.672Z,0
2022-10-08T11:14:43.274Z,0
2022-10-08T11:19:44.855Z,0
2022-10-08T11:24:46.460Z,0
2022-10-08T11:29:48.025Z,0
2022-10-08T11:34:49.586Z,0
2022-10-08T11:39:51.340Z,0
2022-10-08T11:44:52.963Z,0
2022-10-08T11:49:54.530Z,0
2022-10-08T11:54:56.206Z,0
2022-10-08T11:59:57.788Z,0
2022-10-08T12:04:59.389Z,0
2022-10-08T12:10:00.953Z,0
2022-10-08T12:15:02.616Z,0
2022-10-08T12:20:04.223Z,0
2022-10-08T12:25:05.778Z,0
2022-10-08T12:30:07.373Z,0
2022-10-08T12:35:09.020Z,0
2022-10-08T12:40:10.618Z,0
2022-10-08T12:45:12.215Z,0
2022-10-08T12:50:13.824Z,0
2022-10-08T12:55:15.488Z,0
2022-10-08T13:00:17.097Z,0
2022-10-08T13:05:18.723Z,0
2022-10-08T13:10:20.487Z,0
2022-10-08T13:15:22.086Z,0
2022-10-08T13:20:23.799Z,0
2022-10-08T13:25:25.484Z,0
2022-10-08T13:30:27.092Z,0
2022-10-08T13:35:28.696Z,0.88715
2022-10-08T13:40:30.294Z,1.16185
2022-10-08T13:45:31.873Z,1.3463
2022-10-08T13:50:33.486Z,1.54065
2022-10-08T13:55:35.128Z,3.25915
2022-10-08T14:00:36.844Z,5.93855
2022-10-08T14:05:38.531Z,11.1393
2022-10-08T14:10:40.152Z,14.9386
2022-10-08T14:15:41.756Z,21.85455
2022-10-08T14:20:43.366Z,27.60865
2022-10-08T14:25:45.022Z,40.5183
2022-10-08T14:30:46.612Z,49.4632
2022-10-08T14:35:48.212Z,52.59885
2022-10-08T14:40:49.847Z,61.78335
2022-10-08T14:45:51.558Z,65.5275
2022-10-08T14:50:53.194Z,77.5339
2022-10-08T15:01:02.416Z,726.82865
2022-10-08T15:06:04.012Z,1048.00115
2022-10-08T15:11:05.591Z,314.60225
2022-10-08T15:16:07.266Z,300.73105
2022-10-08T15:21:08.870Z,325.56
2022-10-08T15:26:10.519Z,356.8186
2022-10-08T15:31:12.115Z,371.36555
2022-10-08T15:36:13.714Z,317.73745
2022-10-08T15:41:15.317Z,313.05595
2022-10-08T15:46:17.040Z,314.71505
2022-10-08T15:51:18.699Z,316.31505
2022-10-08T15:56:20.310Z,320.7001
2022-10-08T16:01:22.082Z,306.47855
2022-10-08T16:06:23.754Z,300.3159
2022-10-08T16:11:25.370Z,295.81205
2022-10-08T16:16:26.982Z,313.1151
2022-10-08T16:21:28.604Z,326.4484
2022-10-08T16:26:30.189Z,358.9216
2022-10-08T16:31:31.798Z,400.10515
2022-10-08T16:36:33.403Z,439.15525
2022-10-08T16:41:35.026Z,461.0806
2022-10-08T16:46:36.629Z,445.7919
2022-10-08T16:51:38.207Z,454.56185
2022-10-08T16:56:39.764Z,449.11025
2022-10-08T17:01:41.591Z,469.1392
2022-10-08T17:06:43.318Z,483.89415
2022-10-08T17:11:44.955Z,469.0797
2022-10-08T17:16:46.572Z,460.0725
2022-10-08T17:21:48.175Z,434.5328
2022-10-08T17:26:49.894Z,423.80715
2022-10-08T17:31:51.526Z,447.74685
2022-10-08T17:36:53.136Z,457.64285
2022-10-08T17:41:54.775Z,451.71715
2022-10-08T17:46:56.345Z,460.5465
2022-10-08T17:51:57.937Z,491.6566
2022-10-08T17:56:59.538Z,522.82605
2022-10-08T18:02:01.252Z,528.39625
2022-10-08T18:07:03.752Z,526.8555
2022-10-08T18:12:05.459Z,520.8111
2022-10-08T18:17:07.109Z,520.989
2022-10-08T18:22:08.715Z,528.57395
2022-10-08T18:27:10.344Z,527.9221
2022-10-08T18:32:11.953Z,526.8555
2022-10-08T18:37:13.613Z,508.18955
2022-10-08T18:42:15.222Z,499.95275
2022-10-08T18:47:16.828Z,506.3526
2022-10-08T18:52:21.558Z,504.3972
2022-10-08T18:57:23.586Z,496.9307
2022-10-08T19:02:25.203Z,501.25655
2022-10-08T19:07:26.860Z,498.4713
2022-10-08T19:12:28.488Z,495.09355
2022-10-08T19:17:30.072Z,495.27135
2022-10-08T19:22:31.631Z,489.0492
2022-10-08T19:27:33.209Z,488.33805
2022-10-08T19:32:34.793Z,483.1235
2022-10-08T19:37:36.396Z,475.53855
2022-10-08T19:42:37.976Z,484.07145
2022-10-08T19:47:39.614Z,502.08565
2022-10-08T19:52:41.191Z,498.4715
2022-10-08T19:57:42.770Z,516.48595
2022-10-08T20:02:44.398Z,547.12205
2022-10-08T20:07:46.050Z,555.4774
2022-10-08T20:12:47.878Z,570.9435
2022-10-08T20:17:49.619Z,556.7218
2022-10-08T20:22:51.605Z,544.5148
2022-10-08T20:27:53.347Z,526.79695
2022-10-08T20:32:54.955Z,518.85645
2022-10-08T20:37:56.596Z,499.71645
2022-10-08T20:42:58.201Z,462.97685
2022-10-08T20:47:59.845Z,443.48095
2022-10-08T20:53:01.468Z,422.2076
2022-10-08T20:58:03.087Z,421.55585
2022-10-08T21:03:04.674Z,430.97765
2022-10-08T21:08:06.240Z,433.58475
2022-10-08T21:13:07.858Z,464.102
2022-10-08T21:18:09.452Z,473.52395
2022-10-08T21:23:11.025Z,461.37635
2022-10-08T21:28:12.672Z,466.76895
2022-10-08T21:33:14.262Z,465.9987
2022-10-08T21:38:15.866Z,462.85825
2022-10-08T21:43:17.461Z,451.06605
2022-10-08T21:48:19.070Z,445.6736
2022-10-08T21:53:20.671Z,457.8213
2022-10-08T21:58:22.328Z,470.08745
2022-10-08T22:03:23.954Z,476.4872
2022-10-08T22:08:25.567Z,493.02
2022-10-08T22:13:27.187Z,498.7679
2022-10-08T22:18:28.784Z,504.69355
2022-10-08T22:23:30.426Z,504.3972
2022-10-08T22:28:32.228Z,500.66395
2022-10-08T22:33:33.901Z,499.1825
2022-10-08T22:38:35.647Z,498.76765
2022-10-08T22:43:37.315Z,492.1309
2022-10-08T22:48:38.904Z,485.13855
2022-10-08T22:53:40.497Z,477.19805
2022-10-08T22:58:42.108Z,467.71685
2022-10-08T23:03:43.774Z,461.67255
2022-10-08T23:08:45.414Z,450.5322
2022-10-08T23:13:47.013Z,434.3549
2022-10-08T23:18:48.706Z,417.82205
2022-10-08T23:23:50.312Z,394.3561
2022-10-08T23:28:51.941Z,310.32975
2022-10-08T23:33:53.527Z,140.75485
2022-10-08T23:38:55.116Z,154.4366
2022-10-08T23:43:56.730Z,154.36245
2022-10-08T23:48:58.362Z,147.8154
2022-10-08T23:53:59.955Z,138.0224
2022-10-08T23:59:01.628Z,124.13535
